createdAt,value
2023-02-04T00:00:15.099Z,78
2023-02-04T00:05:15.109Z,78
2023-02-04T00:10:15.112Z,79
2023-02-04T00:15:15.104Z,79
2023-02-04T00:20:15.114Z,80
2023-02-04T00:25:15.105Z,80
2023-02-04T00:30:15.102Z,80
2023-02-04T00:35:15.105Z,79
2023-02-04T00:40:15.103Z,79
2023-02-04T00:45:15.105Z,79
2023-02-04T00:50:15.107Z,78
2023-02-04T00:55:15.102Z,78
2023-02-04T01:00:15.100Z,78
2023-02-04T01:05:15.131Z,78
2023-02-04T01:10:15.110Z,78
2023-02-04T01:15:15.111Z,78
2023-02-04T01:20:15.110Z,78
2023-02-04T01:25:15.094Z,79
2023-02-04T01:30:15.110Z,79
2023-02-04T01:35:15.103Z,79
2023-02-04T01:40:15.110Z,80
2023-02-04T01:45:15.110Z,80
2023-02-04T01:50:15.113Z,80
2023-02-04T01:55:15.113Z,80
2023-02-04T02:00:15.106Z,80
2023-02-04T02:05:15.109Z,80
2023-02-04T02:10:15.119Z,79
2023-02-04T02:15:15.107Z,78
2023-02-04T02:20:15.108Z,77
2023-02-04T02:25:15.108Z,77
2023-02-04T02:30:15.107Z,77
2023-02-04T02:35:15.110Z,77
2023-02-04T02:40:15.102Z,77
2023-02-04T02:45:15.103Z,76
2023-02-04T02:50:15.100Z,76
2023-02-04T02:55:15.098Z,76
2023-02-04T03:00:15.105Z,75
2023-02-04T03:05:15.132Z,75
2023-02-04T03:10:15.095Z,76
2023-02-04T03:15:15.103Z,78
2023-02-04T03:20:15.109Z,77
2023-02-04T03:25:15.094Z,76
2023-02-04T03:30:15.109Z,76
2023-02-04T03:35:15.095Z,76
2023-02-04T03:40:15.106Z,76
2023-02-04T03:45:15.257Z,76
2023-02-04T03:50:15.125Z,76
2023-02-04T03:55:15.102Z,75
2023-02-04T04:00:15.112Z,74
2023-02-04T04:05:15.104Z,75
2023-02-04T04:10:15.102Z,76
2023-02-04T04:15:15.103Z,76
2023-02-04T04:20:15.111Z,77
2023-02-04T04:25:15.116Z,76
2023-02-04T04:30:15.105Z,75
2023-02-04T04:35:15.108Z,76
2023-02-04T04:40:15.118Z,75
2023-02-04T04:45:15.109Z,76
2023-02-04T04:50:15.096Z,76
2023-02-04T04:55:15.106Z,76
2023-02-04T05:00:15.096Z,76
2023-02-04T05:05:15.098Z,77
2023-02-04T05:10:15.090Z,77
2023-02-04T05:15:15.096Z,77
2023-02-04T05:20:15.113Z,77
2023-02-04T05:25:15.111Z,77
2023-02-04T05:30:15.151Z,78
2023-02-04T05:35:15.124Z,78
2023-02-04T05:40:15.111Z,78
2023-02-04T05:45:15.118Z,78
2023-02-04T05:50:15.093Z,78
2023-02-04T05:55:15.101Z,78
2023-02-04T06:00:15.092Z,78
2023-02-04T06:05:15.093Z,78
2023-02-04T06:10:15.107Z,78
2023-02-04T06:15:15.100Z,78
2023-02-04T06:20:15.089Z,79
2023-02-04T06:25:15.104Z,79
2023-02-04T06:30:15.129Z,82
2023-02-04T06:35:15.108Z,87
2023-02-04T06:40:15.102Z,88
2023-02-04T06:45:15.106Z,89
2023-02-04T06:50:15.109Z,89
2023-02-04T06:55:15.107Z,89
2023-02-04T07:00:15.098Z,89
2023-02-04T07:05:15.099Z,89
2023-02-04T07:10:15.090Z,90
2023-02-04T07:15:15.099Z,90
2023-02-04T07:20:15.115Z,89
2023-02-04T07:25:15.100Z,89
2023-02-04T07:30:15.096Z,89
2023-02-04T07:35:15.097Z,90
2023-02-04T07:40:15.097Z,91
2023-02-04T07:45:15.102Z,92
2023-02-04T07:50:15.090Z,92
2023-02-04T07:55:15.091Z,93
2023-02-04T08:00:15.079Z,93
2023-02-04T08:05:15.096Z,93
2023-02-04T08:10:15.083Z,93
2023-02-04T08:15:15.090Z,92
2023-02-04T08:20:15.076Z,92
2023-02-04T08:25:15.073Z,91
2023-02-04T08:30:15.090Z,90
2023-02-04T08:35:15.093Z,89
2023-02-04T08:40:15.090Z,87
2023-02-04T08:45:15.094Z,87
2023-02-04T08:50:15.119Z,86
2023-02-04T08:55:15.127Z,85
2023-02-04T09:00:15.120Z,84
2023-02-04T09:05:15.118Z,83
2023-02-04T09:10:15.128Z,81
2023-02-04T09:15:15.122Z,81
2023-02-04T09:20:15.137Z,81
2023-02-04T09:25:15.146Z,79
2023-02-04T09:30:15.132Z,79
2023-02-04T09:35:15.138Z,79
2023-02-04T09:40:15.167Z,80
2023-02-04T09:45:15.129Z,79
2023-02-04T09:50:15.136Z,79
2023-02-04T09:55:15.138Z,78
2023-02-04T10:00:15.138Z,78
2023-02-04T10:05:15.122Z,77
2023-02-04T10:10:15.104Z,77
2023-02-04T10:15:15.100Z,76
2023-02-04T10:20:15.097Z,76
2023-02-04T10:25:15.103Z,77
2023-02-04T10:30:15.107Z,76
2023-02-04T10:35:15.094Z,76
2023-02-04T10:40:15.106Z,75
2023-02-04T10:45:15.107Z,76
2023-02-04T10:50:15.106Z,75
2023-02-04T10:55:15.093Z,74
2023-02-04T11:00:15.108Z,74
2023-02-04T11:05:15.112Z,75
2023-02-04T11:10:15.102Z,75
2023-02-04T11:15:15.113Z,74
2023-02-04T11:20:15.106Z,74
2023-02-04T11:25:15.102Z,74
2023-02-04T11:30:15.115Z,73
2023-02-04T11:35:15.115Z,73
2023-02-04T11:40:15.184Z,73
2023-02-04T11:45:15.110Z,72
2023-02-04T11:50:15.147Z,72
2023-02-04T11:55:15.098Z,73
2023-02-04T12:00:15.102Z,72
2023-02-04T12:05:15.102Z,73
2023-02-04T12:10:15.106Z,73
2023-02-04T12:15:15.112Z,73
2023-02-04T12:20:15.095Z,73
2023-02-04T12:25:15.111Z,72
2023-02-04T12:30:15.094Z,71
2023-02-04T12:35:15.107Z,70
2023-02-04T12:40:15.101Z,70
2023-02-04T12:45:15.103Z,71
2023-02-04T12:50:15.107Z,69
2023-02-04T12:55:15.118Z,70
2023-02-04T13:00:15.110Z,70
2023-02-04T13:05:15.097Z,70
2023-02-04T13:10:15.098Z,70
2023-02-04T13:15:15.116Z,70
2023-02-04T13:20:15.152Z,67
2023-02-04T13:25:15.105Z,67
2023-02-04T13:30:15.109Z,68
2023-02-04T13:35:15.088Z,67
2023-02-04T13:40:15.084Z,68
2023-02-04T13:45:15.105Z,68
2023-02-04T13:50:15.102Z,68
2023-02-04T13:55:15.110Z,68
2023-02-04T14:00:15.093Z,70
2023-02-04T14:05:15.117Z,69
2023-02-04T14:10:15.105Z,70
2023-02-04T14:15:15.104Z,69
2023-02-04T14:20:15.105Z,69
2023-02-04T14:25:15.116Z,69
2023-02-04T14:30:15.102Z,70
2023-02-04T14:35:15.115Z,70
2023-02-04T14:40:15.113Z,71
2023-02-04T14:45:15.120Z,71
2023-02-04T14:50:15.101Z,71
2023-02-04T14:55:15.107Z,71
2023-02-04T15:00:15.100Z,72
2023-02-04T15:05:15.120Z,70
2023-02-04T15:10:15.487Z,70
2023-02-04T15:15:15.107Z,70
2023-02-04T15:20:15.110Z,69
2023-02-04T15:25:15.103Z,68
2023-02-04T15:30:15.098Z,68
2023-02-04T15:35:15.101Z,68
2023-02-04T15:40:15.133Z,70
2023-02-04T15:45:15.197Z,71
2023-02-04T15:50:15.177Z,70
2023-02-04T15:55:15.121Z,71
2023-02-04T16:00:15.118Z,73
2023-02-04T16:05:15.129Z,72
2023-02-04T16:10:16.807Z,73
2023-02-04T16:15:15.132Z,74
2023-02-04T16:20:15.129Z,75
2023-02-04T16:25:15.121Z,76
2023-02-04T16:30:15.124Z,76
2023-02-04T16:35:15.116Z,77
2023-02-04T16:40:15.116Z,78
2023-02-04T16:45:15.134Z,79
2023-02-04T16:50:15.120Z,80
2023-02-04T16:55:15.122Z,80
2023-02-04T17:00:15.108Z,82
2023-02-04T17:05:15.118Z,83
2023-02-04T17:10:15.133Z,84
2023-02-04T17:15:15.112Z,84
2023-02-04T17:20:15.120Z,85
2023-02-04T17:25:15.116Z,85
2023-02-04T17:30:15.124Z,85
2023-02-04T17:35:15.109Z,86
2023-02-04T17:40:15.111Z,86
2023-02-04T17:45:15.113Z,87
2023-02-04T17:50:15.116Z,88
2023-02-04T17:55:15.120Z,88
2023-02-04T18:00:15.111Z,88
2023-02-04T18:05:15.123Z,88
2023-02-04T18:10:15.104Z,89
2023-02-04T18:15:15.384Z,89
2023-02-04T18:20:15.351Z,89
2023-02-04T18:25:15.461Z,89
2023-02-04T18:30:15.565Z,90
2023-02-04T18:35:15.436Z,90
2023-02-04T18:40:15.256Z,90
2023-02-04T18:45:15.092Z,90
2023-02-04T18:50:15.093Z,90
2023-02-04T18:55:15.104Z,90
2023-02-04T19:00:15.099Z,90
2023-02-04T19:05:15.406Z,90
2023-02-04T19:10:15.683Z,90
2023-02-04T19:15:15.647Z,90
2023-02-04T19:20:15.629Z,90
2023-02-04T19:25:15.489Z,90
2023-02-04T19:30:15.213Z,91
2023-02-04T19:35:15.111Z,90
2023-02-04T19:40:15.080Z,90
2023-02-04T19:45:15.100Z,91
2023-02-04T19:50:15.102Z,91
2023-02-04T19:55:15.094Z,91
2023-02-04T20:00:15.111Z,91
2023-02-04T20:05:15.104Z,90
2023-02-04T20:10:15.110Z,91
2023-02-04T20:15:15.099Z,91
2023-02-04T20:20:15.106Z,89
2023-02-04T20:25:15.109Z,88
2023-02-04T20:30:15.134Z,89
2023-02-04T20:35:15.112Z,90
2023-02-04T20:40:15.105Z,90
2023-02-04T20:45:15.100Z,90
2023-02-04T20:50:15.105Z,90
2023-02-04T20:55:15.091Z,89
2023-02-04T21:00:15.102Z,89
2023-02-04T21:05:15.109Z,90
2023-02-04T21:10:15.113Z,91
2023-02-04T21:15:15.122Z,90
2023-02-04T21:20:15.107Z,90
2023-02-04T21:25:15.102Z,90
2023-02-04T21:30:15.106Z,90
2023-02-04T21:35:15.110Z,90
2023-02-04T21:40:15.094Z,90
2023-02-04T21:45:15.094Z,90
2023-02-04T21:50:15.109Z,89
2023-02-04T21:55:15.111Z,90
2023-02-04T22:00:15.101Z,89
2023-02-04T22:05:15.119Z,91
2023-02-04T22:10:15.100Z,89
2023-02-04T22:15:15.266Z,89
2023-02-04T22:20:15.118Z,90
2023-02-04T22:25:15.105Z,90
2023-02-04T22:30:15.099Z,90
2023-02-04T22:35:15.114Z,90
2023-02-04T22:40:15.105Z,91
2023-02-04T22:45:15.119Z,90
2023-02-04T22:50:15.112Z,91
2023-02-04T22:55:15.110Z,91
2023-02-04T23:00:15.109Z,92
2023-02-04T23:05:15.111Z,92
2023-02-04T23:10:15.115Z,92
2023-02-04T23:15:15.102Z,92
2023-02-04T23:20:15.111Z,92
2023-02-04T23:25:15.097Z,93
2023-02-04T23:30:15.099Z,92
2023-02-04T23:35:15.105Z,92
2023-02-04T23:40:15.104Z,93
2023-02-04T23:45:15.108Z,92
2023-02-04T23:50:15.100Z,93
2023-02-04T23:55:16.264Z,93
